createdAt,value
2019-05-14T00:09:53.039Z,100669.45
2019-05-14T00:20:31.783Z,100668.30
2019-05-14T00:30:32.694Z,100663.41
2019-05-14T00:40:33.721Z,100649.91
2019-05-14T01:00:46.810Z,100639.56
2019-05-14T01:10:47.794Z,100645.77
2019-05-14T01:20:48.963Z,100633.98
2019-05-14T01:30:51.847Z,100633.48
2019-05-14T01:40:52.717Z,100633.80
2019-05-14T01:51:17.250Z,100631.71
2019-05-14T02:01:17.985Z,100637.67
2019-05-14T02:11:21.261Z,100625.62
2019-05-14T02:21:22.828Z,100627.77
2019-05-14T02:31:24.039Z,100625.81
2019-05-14T02:41:24.817Z,100619.22
2019-05-14T02:51:25.972Z,100611.67
2019-05-14T03:01:29.923Z,100607.67
2019-05-14T03:11:30.026Z,100595.41
2019-05-14T03:21:50.133Z,100582.56
2019-05-14T03:31:52.882Z,100585.98
2019-05-14T03:41:53.029Z,100581.62
2019-05-14T03:51:53.962Z,100566.95
2019-05-14T04:01:55.060Z,100570.72
2019-05-14T04:11:59.515Z,100561.63
2019-05-14T04:22:01.375Z,100563.61
2019-05-14T04:32:02.673Z,100551.38
2019-05-14T04:42:03.570Z,100566.00
2019-05-14T04:52:04.723Z,100573.41
2019-05-14T05:02:09.210Z,100567.53
2019-05-14T05:12:09.234Z,100560.50
2019-05-14T05:22:10.285Z,100549.20
2019-05-14T05:32:11.079Z,100555.55
2019-05-14T05:42:11.888Z,100561.88
2019-05-14T05:52:13.423Z,100569.64
2019-05-14T06:02:14.514Z,100563.68
2019-05-14T06:12:15.213Z,100557.20
2019-05-14T06:22:18.631Z,100547.19
2019-05-14T06:32:19.054Z,100554.52
2019-05-14T06:42:21.087Z,100553.88
2019-05-14T06:52:22.181Z,100557.90
2019-05-14T07:02:23.240Z,100561.12
2019-05-14T07:12:24.241Z,100550.01
2019-05-14T07:22:25.231Z,100547.27
2019-05-14T07:32:28.752Z,100543.03
2019-05-14T07:42:30.088Z,100534.03
2019-05-14T07:52:31.419Z,100525.42
2019-05-14T08:02:32.482Z,100517.20
2019-05-14T08:12:33.189Z,100502.70
2019-05-14T08:22:34.793Z,100488.08
2019-05-14T08:32:35.612Z,100489.30
2019-05-14T08:42:38.326Z,100475.23
2019-05-14T08:52:39.545Z,100473.38
2019-05-14T09:02:40.579Z,100472.44
2019-05-14T09:12:41.617Z,100459.25
2019-05-14T09:22:43.507Z,100452.36
2019-05-14T09:32:44.441Z,100452.70
2019-05-14T09:42:45.211Z,100442.52
2019-05-14T09:52:46.323Z,100420.73
2019-05-14T10:02:49.191Z,100431.59
2019-05-14T10:23:35.750Z,100410.33
2019-05-14T10:33:36.924Z,100410.15
2019-05-14T10:43:55.240Z,100407.36
2019-05-14T10:54:20.513Z,100394.94
2019-05-14T11:04:06.282Z,100409.99
2019-05-14T11:14:08.756Z,100387.92
2019-05-14T11:24:10.341Z,100367.48
2019-05-14T11:34:11.548Z,100377.02
2019-05-14T11:44:12.775Z,100348.38
2019-05-14T11:54:13.931Z,100350.38
2019-05-14T12:04:14.833Z,100336.21
2019-05-14T12:24:40.019Z,100309.09
2019-05-14T12:34:44.038Z,100300.16
2019-05-14T12:45:09.132Z,100289.03
2019-05-14T13:16:24.368Z,100245.69
2019-05-14T13:58:09.477Z,100202.49
2019-05-14T14:08:15.804Z,100189.27
2019-05-14T14:18:20.641Z,100190.43
2019-05-14T14:28:21.478Z,100176.30
2019-05-14T14:38:22.600Z,100179.73
2019-05-14T14:48:23.574Z,100162.50
2019-05-14T14:58:28.643Z,100150.30
2019-05-14T15:08:32.003Z,100134.36
2019-05-14T15:18:33.804Z,100124.69
2019-05-14T15:28:34.588Z,100106.94
2019-05-14T15:38:35.885Z,100114.55
2019-05-14T15:48:39.514Z,100105.95
2019-05-14T15:58:41.150Z,100106.15
2019-05-14T16:08:42.250Z,100105.73
2019-05-14T16:18:43.345Z,100074.17
2019-05-14T16:28:44.313Z,100082.08
2019-05-14T16:38:48.149Z,100074.27
2019-05-14T16:48:54.499Z,100071.77
2019-05-14T16:58:58.570Z,100071.14
2019-05-14T17:09:00.278Z,100072.75
2019-05-14T17:19:01.377Z,100073.09
2019-05-14T17:29:02.492Z,100071.75
2019-05-14T17:39:08.473Z,100063.89
2019-05-14T17:49:09.005Z,100067.67
2019-05-14T17:59:10.375Z,100063.85
2019-05-14T18:09:11.730Z,100074.72
2019-05-14T18:19:12.423Z,100071.58
2019-05-14T18:29:13.161Z,100075.77
2019-05-14T18:39:17.220Z,100062.73
2019-05-14T18:49:19.574Z,100070.72
2019-05-14T18:59:21.253Z,100062.52
2019-05-14T19:10:40.517Z,100075.73
2019-05-14T19:19:52.025Z,100078.09
2019-05-14T19:29:55.603Z,100078.13
2019-05-14T19:39:58.583Z,100080.48
2019-05-14T19:49:58.959Z,100081.78
2019-05-14T20:00:00.738Z,100088.97
2019-05-14T20:10:02.641Z,100091.48
2019-05-14T20:20:04.948Z,100088.76
2019-05-14T20:30:08.728Z,100079.09
2019-05-14T20:40:10.810Z,100074.64
2019-05-14T20:50:14.974Z,100069.27
2019-05-14T21:00:18.085Z,100068.13
2019-05-14T21:10:19.716Z,100067.11
2019-05-14T21:20:21.426Z,100060.58
2019-05-14T21:30:48.558Z,100050.33
2019-05-14T21:40:50.049Z,100049.67
2019-05-14T21:51:15.383Z,100052.58
2019-05-14T22:01:18.626Z,100051.17
2019-05-14T22:11:19.269Z,100044.19
2019-05-14T22:21:20.365Z,100053.09
2019-05-14T22:31:21.071Z,100053.30
2019-05-14T22:41:21.884Z,100055.15
2019-05-14T22:51:22.857Z,100045.93
2019-05-14T23:01:23.892Z,100040.65
2019-05-14T23:11:40.040Z,100031.83
2019-05-14T23:21:40.786Z,100040.80
2019-05-14T23:31:41.847Z,100035.68
2019-05-14T23:41:43.138Z,100025.97
2019-05-14T23:51:43.824Z,100029.78
